Time;durP1;ratioP1;P1;durP2;ratioP2;P2;SDS_P1;SDS_P2;PMS_P1;PMS_P2;Temp;Humidity;BMP_temperature;BMP_pressure;BME280_temperature;BME280_humidity;BME280_pressure;Samples;Min_cycle;Max_cycle;Signal;HPM_P1;HPM_P2
2021/09/04 00:00:04;;;;;;;7.30;3.63;;;;;;;11.20;93.26;98601.97;5025743;28;20321;-67
2021/09/04 00:02:30;;;;;;;7.30;4.47;;;;;;;11.14;92.91;98599.47;5025518;28;20092;-67
2021/09/04 00:04:55;;;;;;;8.95;4.55;;;;;;;11.01;92.68;98600.63;5006116;28;20042;-67
2021/09/04 00:07:20;;;;;;;8.63;4.95;;;;;;;11.03;93.34;98589.16;5006166;28;20337;-67
2021/09/04 00:09:46;;;;;;;6.82;4.03;;;;;;;10.93;92.29;98587.63;5006037;28;20022;-67
2021/09/04 00:12:11;;;;;;;7.50;4.30;;;;;;;10.96;92.60;98592.81;5005836;28;20071;-67
2021/09/04 00:14:37;;;;;;;8.20;4.47;;;;;;;11.01;92.49;98585.69;5005162;28;20090;-67
2021/09/04 00:17:03;;;;;;;6.30;4.22;;;;;;;10.81;91.64;98587.88;5005634;28;20041;-67
2021/09/04 00:19:28;;;;;;;6.50;3.97;;;;;;;10.87;92.62;98585.13;5005985;28;20033;-67
2021/09/04 00:21:53;;;;;;;6.07;4.00;;;;;;;10.88;92.76;98586.84;5005801;28;20022;-67
2021/09/04 00:24:19;;;;;;;9.07;5.43;;;;;;;10.83;93.12;98586.09;5005534;28;20029;-67
2021/09/04 00:26:44;;;;;;;7.82;4.82;;;;;;;10.82;92.81;98584.34;5005453;28;20097;-67
2021/09/04 00:29:10;;;;;;;8.45;4.72;;;;;;;10.87;93.00;98587.75;5005472;28;20085;-67
2021/09/04 00:31:35;;;;;;;6.30;4.18;;;;;;;10.94;93.24;98584.06;5005353;28;20034;-67
2021/09/04 00:34:00;;;;;;;8.35;5.57;;;;;;;10.77;92.85;98586.22;5005567;28;20030;-67
2021/09/04 00:36:26;;;;;;;11.27;5.07;;;;;;;10.83;93.45;98596.63;5004366;28;20191;-67
2021/09/04 00:38:51;;;;;;;11.38;5.63;;;;;;;10.80;93.58;98584.38;5005454;28;20037;-67
2021/09/04 00:41:21;;;;;;;8.00;5.20;;;;;;;10.87;93.57;98588.63;5005232;28;20022;-67
2021/09/04 00:43:48;;;;;;;8.95;5.05;;;;;;;10.87;93.11;98588.63;5005387;28;20026;-67
2021/09/04 00:46:13;;;;;;;10.48;4.80;;;;;;;10.91;92.44;98585.03;5005213;28;20026;-67
2021/09/04 00:48:39;;;;;;;8.43;5.10;;;;;;;10.79;92.62;98584.44;5005280;28;20030;-67
2021/09/04 00:51:05;;;;;;;11.35;5.47;;;;;;;10.75;92.58;98593.25;5005082;28;20026;-67
2021/09/04 00:53:31;;;;;;;8.77;4.95;;;;;;;10.75;92.68;98588.00;5005212;28;20081;-67
2021/09/04 00:55:57;;;;;;;10.90;5.40;;;;;;;10.69;92.11;98582.84;5005162;28;20153;-67
2021/09/04 00:58:23;;;;;;;9.25;4.35;;;;;;;10.75;92.38;98578.34;5004778;28;20058;-67
2021/09/04 01:00:51;;;;;;;5.60;3.72;;;;;;;10.67;92.24;98574.16;5004830;28;20073;-67
2021/09/04 01:03:17;;;;;;;6.75;3.90;;;;;;;10.66;92.91;98564.50;5010996;28;20456;-67
2021/09/04 01:05:42;;;;;;;7.07;4.45;;;;;;;10.54;92.02;98572.66;5024653;28;20232;-67
2021/09/04 01:08:09;;;;;;;6.25;3.97;;;;;;;10.65;92.43;98575.94;5024372;28;20022;-67
2021/09/04 01:10:34;;;;;;;6.47;4.00;;;;;;;10.66;92.54;98572.38;5024550;28;20325;-67
2021/09/04 01:12:59;;;;;;;6.95;4.18;;;;;;;10.63;92.36;98572.44;5024535;28;20072;-67
2021/09/04 01:15:25;;;;;;;7.97;4.30;;;;;;;10.55;92.43;98572.63;5024235;28;20213;-67
2021/09/04 01:17:50;;;;;;;7.55;3.95;;;;;;;10.57;92.99;98570.81;5024202;28;20026;-67
2021/09/04 01:20:16;;;;;;;14.70;4.88;;;;;;;10.52;92.51;98569.19;5024128;28;20056;-67
2021/09/04 01:22:42;;;;;;;5.85;3.50;;;;;;;10.50;92.47;98570.97;5024386;28;20022;-67
2021/09/04 01:25:08;;;;;;;5.65;2.70;;;;;;;10.52;93.40;98574.44;5024192;28;20376;-67
2021/09/04 01:27:36;;;;;;;7.05;3.92;;;;;;;10.28;92.12;98574.91;5024117;28;20022;-67
2021/09/04 01:30:03;;;;;;;5.88;3.83;;;;;;;10.30;92.86;98579.28;5024333;28;20088;-67
2021/09/04 01:32:29;;;;;;;5.22;3.33;;;;;;;10.40;92.99;98569.41;5023926;28;20029;-67
2021/09/04 01:34:54;;;;;;;5.03;3.50;;;;;;;10.41;92.55;98564.13;5023968;28;20089;-67
2021/09/04 01:37:20;;;;;;;4.90;3.50;;;;;;;10.41;92.62;98563.28;5023942;28;20076;-67
2021/09/04 01:39:45;;;;;;;6.70;4.25;;;;;;;10.30;92.17;98559.97;5023704;28;20022;-67
2021/09/04 01:42:10;;;;;;;7.30;3.50;;;;;;;10.32;92.68;98561.69;5024010;28;20026;-67
2021/09/04 01:44:37;;;;;;;5.53;3.47;;;;;;;10.32;93.00;98560.84;5024179;28;20028;-67
2021/09/04 01:47:02;;;;;;;6.00;3.85;;;;;;;10.34;92.79;98561.66;5024168;28;20037;-67
2021/09/04 01:49:28;;;;;;;6.43;4.20;;;;;;;10.39;93.09;98562.44;5023834;28;20018;-67
2021/09/04 01:51:53;;;;;;;8.88;4.13;;;;;;;10.23;91.95;98555.75;5023824;28;20022;-67
2021/09/04 01:54:19;;;;;;;7.72;4.35;;;;;;;10.15;92.48;98552.38;5023810;28;20021;-67
2021/09/04 01:56:44;;;;;;;7.53;4.10;;;;;;;10.12;92.74;98552.44;5023996;28;20068;-67
2021/09/04 01:59:10;;;;;;;7.30;3.92;;;;;;;10.25;93.16;98543.44;5023709;28;20026;-67
2021/09/04 02:01:35;;;;;;;7.15;4.32;;;;;;;10.24;92.89;98541.69;5023981;28;20087;-67
2021/09/04 02:04:00;;;;;;;9.65;4.95;;;;;;;10.17;92.74;98537.44;5023691;28;20049;-67
2021/09/04 02:06:26;;;;;;;7.57;4.45;;;;;;;10.23;92.50;98535.56;5023920;28;20032;-67
2021/09/04 02:08:51;;;;;;;7.35;4.28;;;;;;;10.22;91.72;98532.97;5023665;28;20085;-67
2021/09/04 02:11:16;;;;;;;6.05;4.15;;;;;;;10.07;92.17;98533.25;5023672;28;20056;-67
2021/09/04 02:13:42;;;;;;;7.75;4.10;;;;;;;10.10;91.91;98527.94;5023803;28;20266;-67
2021/09/04 02:16:07;;;;;;;7.72;3.63;;;;;;;10.07;92.25;98539.41;5023811;28;20121;-67
2021/09/04 02:18:33;;;;;;;5.40;3.28;;;;;;;10.05;92.63;98545.53;5023623;28;20104;-67
2021/09/04 02:21:00;;;;;;;8.50;3.40;;;;;;;10.06;92.58;98536.75;5023751;28;20022;-67
2021/09/04 02:23:25;;;;;;;9.13;3.72;;;;;;;10.06;92.33;98536.75;5023790;28;20038;-67
2021/09/04 02:25:51;;;;;;;10.02;3.08;;;;;;;10.06;92.34;98531.50;5023781;28;20182;-67
2021/09/04 02:28:16;;;;;;;5.18;3.22;;;;;;;9.97;92.53;98537.78;5023694;28;20089;-67
2021/09/04 02:30:42;;;;;;;5.20;3.15;;;;;;;9.82;92.96;98526.69;5023707;28;20025;-67
2021/09/04 02:33:08;;;;;;;4.95;3.38;;;;;;;9.90;92.66;98530.06;5023694;28;20339;-67
2021/09/04 02:35:33;;;;;;;5.38;3.45;;;;;;;9.94;93.28;98531.72;5023807;28;20017;-67
2021/09/04 02:38:00;;;;;;;4.47;3.00;;;;;;;9.92;92.71;98529.13;5006414;28;20028;-67
2021/09/04 02:40:26;;;;;;;6.82;3.83;;;;;;;9.92;93.26;98528.25;5027662;28;20465;-67
2021/09/04 02:42:52;;;;;;;9.35;4.47;;;;;;;9.91;93.04;98521.25;5027271;28;20021;-67
2021/09/04 02:45:17;;;;;;;5.65;3.75;;;;;;;9.79;92.48;98532.00;5027214;28;20017;-67
2021/09/04 02:47:43;;;;;;;7.20;4.22;;;;;;;9.82;92.53;98521.44;5026951;28;20021;-67
2021/09/04 02:50:09;;;;;;;6.03;3.78;;;;;;;9.87;92.45;98524.84;5027137;28;20269;-67
2021/09/04 02:52:34;;;;;;;8.35;3.78;;;;;;;9.84;92.47;98519.66;5027107;28;20029;-67
2021/09/04 02:54:59;;;;;;;5.63;3.60;;;;;;;9.77;92.85;98528.50;5027293;28;20182;-67
2021/09/04 02:57:25;;;;;;;4.85;3.17;;;;;;;9.77;92.61;98529.41;5026900;28;20345;-67
2021/09/04 02:59:50;;;;;;;6.32;3.53;;;;;;;9.57;92.66;98526.25;5026886;28;20092;-67
2021/09/04 03:02:16;;;;;;;8.23;3.85;;;;;;;9.63;92.88;98526.16;5009304;28;20097;-67
2021/09/04 03:04:41;;;;;;;6.60;3.65;;;;;;;9.66;92.41;98519.97;5026528;28;20105;-67
2021/09/04 03:07:06;;;;;;;5.68;3.80;;;;;;;9.71;92.37;98524.25;5026802;28;20024;-67
2021/09/04 03:09:32;;;;;;;6.38;3.80;;;;;;;9.71;91.69;98526.88;5026768;28;20018;-67
2021/09/04 03:11:57;;;;;;;9.70;3.95;;;;;;;9.66;91.49;98525.22;5026712;28;20032;-67
2021/09/04 03:14:23;;;;;;;9.50;3.92;;;;;;;9.50;92.10;98523.75;5026955;28;20028;-67
2021/09/04 03:16:48;;;;;;;6.82;4.10;;;;;;;9.55;92.27;98516.69;5026626;28;20021;-67
2021/09/04 03:19:14;;;;;;;7.68;4.40;;;;;;;9.41;91.80;98518.66;5009009;28;20317;-67
2021/09/04 03:21:39;;;;;;;6.43;3.38;;;;;;;9.45;92.68;98515.06;5026828;28;20204;-67
2021/09/04 03:24:04;;;;;;;6.30;3.72;;;;;;;9.53;92.76;98523.69;5026340;28;20094;-67
2021/09/04 03:26:30;;;;;;;4.50;3.33;;;;;;;9.43;92.39;98522.13;5026474;28;20077;-67
2021/09/04 03:28:55;;;;;;;7.97;3.88;;;;;;;9.29;92.28;98513.59;5026290;28;20025;-67
2021/09/04 03:31:21;;;;;;;6.90;3.47;;;;;;;9.43;92.32;98519.50;5026359;28;20021;-67
2021/09/04 03:33:46;;;;;;;4.57;3.20;;;;;;;9.48;92.97;98520.28;5026145;28;20097;-67
2021/09/04 03:36:11;;;;;;;6.55;3.92;;;;;;;9.44;92.48;98521.22;5026083;28;20249;-67
2021/09/04 03:38:37;;;;;;;6.80;3.47;;;;;;;9.51;92.09;98520.22;5026185;28;20092;-67
2021/09/04 03:41:02;;;;;;;5.60;3.20;;;;;;;9.47;91.41;98518.56;5026258;28;20216;-67
2021/09/04 03:43:27;;;;;;;4.78;2.97;;;;;;;9.36;91.79;98520.50;5026117;28;20022;-67
2021/09/04 03:45:53;;;;;;;5.78;3.65;;;;;;;9.23;92.33;98524.19;5025945;28;20022;-67
2021/09/04 03:48:18;;;;;;;5.38;3.40;;;;;;;9.12;91.90;98529.63;5025786;28;20049;-67
2021/09/04 03:50:44;;;;;;;6.72;3.55;;;;;;;9.14;92.54;98535.69;5024936;28;20025;-67
2021/09/04 03:53:09;;;;;;;4.53;3.22;;;;;;;9.13;92.61;98533.09;5025956;28;20059;-67
2021/09/04 03:55:35;;;;;;;9.30;3.80;;;;;;;9.07;92.71;98530.56;5025882;28;20029;-67
2021/09/04 03:58:00;;;;;;;4.57;3.13;;;;;;;9.10;93.29;98533.16;5025766;28;20309;-67
2021/09/04 04:00:26;;;;;;;6.68;3.58;;;;;;;9.03;93.00;98528.88;5025621;28;20026;-68
2021/09/04 04:02:51;;;;;;;8.43;3.60;;;;;;;9.07;93.10;98523.56;5025515;28;20229;-67
2021/09/04 04:05:16;;;;;;;7.03;3.90;;;;;;;9.14;93.12;98526.97;5025772;28;20213;-67
2021/09/04 04:07:42;;;;;;;7.68;4.30;;;;;;;9.09;92.77;98520.91;5025684;28;20032;-67
2021/09/04 04:10:08;;;;;;;9.52;4.03;;;;;;;9.15;92.56;98520.81;5025267;28;20210;-67
2021/09/04 04:12:34;;;;;;;7.07;3.92;;;;;;;8.99;92.57;98514.06;5025342;28;20030;-67
2021/09/04 04:15:00;;;;;;;7.90;3.38;;;;;;;9.14;93.15;98513.84;5025444;28;20089;-67
2021/09/04 04:17:26;;;;;;;8.35;4.47;;;;;;;9.07;92.79;98527.94;5025580;28;20030;-67
2021/09/04 04:19:51;;;;;;;5.88;3.72;;;;;;;9.12;93.14;98518.25;5025473;28;20021;-67
2021/09/04 04:22:17;;;;;;;11.95;5.03;;;;;;;9.02;92.36;98512.28;5025156;28;20053;-67
2021/09/04 04:24:42;;;;;;;8.27;5.15;;;;;;;8.73;93.22;98517.06;5025105;28;20030;-67
2021/09/04 04:27:07;;;;;;;6.93;4.03;;;;;;;8.66;93.88;98521.53;5025321;28;20022;-67
2021/09/04 04:29:33;;;;;;;7.85;4.43;;;;;;;8.91;93.77;98526.44;5025268;28;20041;-67
2021/09/04 04:31:58;;;;;;;8.98;5.50;;;;;;;8.93;93.46;98524.66;5025227;28;20336;-67
2021/09/04 04:34:23;;;;;;;6.05;3.92;;;;;;;8.98;92.99;98517.59;5025198;28;20022;-67
2021/09/04 04:36:49;;;;;;;6.60;3.45;;;;;;;9.00;92.73;98515.81;5024680;28;20022;-67
2021/09/04 04:39:14;;;;;;;4.88;3.35;;;;;;;8.98;92.43;98517.59;5025025;28;20030;-67
2021/09/04 04:41:40;;;;;;;4.70;2.88;;;;;;;8.89;92.38;98515.09;5007542;28;20089;-67
2021/09/04 04:44:05;;;;;;;7.00;3.53;;;;;;;8.83;92.55;98524.78;5025291;28;20029;-67
2021/09/04 04:46:31;;;;;;;8.13;3.78;;;;;;;8.88;92.99;98526.47;5024800;28;20026;-67
2021/09/04 04:48:56;;;;;;;9.48;3.65;;;;;;;8.99;93.28;98529.81;5024963;28;20032;-67
2021/09/04 04:51:22;;;;;;;6.82;3.67;;;;;;;8.99;92.32;98529.81;5024724;28;20028;-67
2021/09/04 04:53:47;;;;;;;7.18;4.07;;;;;;;8.96;92.45;98528.13;5024840;28;20044;-67
2021/09/04 04:56:13;;;;;;;8.00;4.00;;;;;;;8.75;92.49;98531.91;5024813;28;20060;-67
2021/09/04 04:58:38;;;;;;;9.25;3.60;;;;;;;8.77;92.93;98540.63;5024693;28;20026;-67
2021/09/04 05:01:04;;;;;;;5.88;3.75;;;;;;;8.82;93.22;98537.09;5006949;28;20092;-67
2021/09/04 05:03:30;;;;;;;5.57;3.30;;;;;;;8.82;92.38;98537.09;5024291;28;20064;-67
2021/09/04 05:05:55;;;;;;;5.70;3.20;;;;;;;8.82;92.72;98541.44;5024765;28;20033;-67
2021/09/04 05:08:21;;;;;;;4.95;3.35;;;;;;;8.92;93.33;98541.31;5024593;28;20252;-67
2021/09/04 05:10:46;;;;;;;5.30;3.53;;;;;;;9.06;93.07;98541.97;5024574;28;20022;-67
2021/09/04 05:13:12;;;;;;;5.85;3.63;;;;;;;9.13;92.52;98543.59;5024482;28;20071;-67
2021/09/04 05:15:37;;;;;;;7.03;3.88;;;;;;;9.20;92.97;98540.03;5024514;28;20094;-67
2021/09/04 05:18:03;;;;;;;6.45;3.65;;;;;;;9.23;92.38;98539.94;5024414;28;20025;-67
2021/09/04 05:20:28;;;;;;;9.10;3.70;;;;;;;9.21;91.92;98542.59;5024441;28;20202;-67
2021/09/04 05:22:53;;;;;;;7.53;3.67;;;;;;;9.16;91.79;98538.31;5024415;28;20017;-67
2021/09/04 05:25:19;;;;;;;7.05;3.72;;;;;;;9.03;91.96;98542.00;5024364;28;20044;-67
2021/09/04 05:27:45;;;;;;;8.63;4.28;;;;;;;9.06;92.51;98536.72;5024268;28;20313;-67
2021/09/04 05:30:11;;;;;;;6.30;4.00;;;;;;;9.04;93.36;98548.97;5024317;28;20303;-67
2021/09/04 05:32:37;;;;;;;6.18;3.65;;;;;;;9.15;93.51;98547.09;5024271;28;20068;-67
2021/09/04 05:35:03;;;;;;;5.82;3.55;;;;;;;9.54;93.01;98546.44;5024003;28;20026;-68
2021/09/04 05:37:29;;;;;;;4.88;3.20;;;;;;;9.86;91.63;98545.00;5024211;28;20344;-68
2021/09/04 05:39:55;;;;;;;5.60;3.38;;;;;;;10.16;90.66;98540.97;5022052;28;20013;-68
2021/09/04 05:42:20;;;;;;;5.90;3.72;;;;;;;10.65;89.36;98533.81;5023073;28;20030;-68
2021/09/04 05:44:46;;;;;;;10.82;6.35;;;;;;;11.34;86.94;98542.78;5023022;28;20021;-68
2021/09/04 05:47:12;;;;;;;9.15;3.20;;;;;;;11.81;84.77;98544.28;5023185;28;20117;-68
2021/09/04 05:49:37;;;;;;;8.50;3.30;;;;;;;12.22;82.76;98546.69;5023118;28;20022;-68
2021/09/04 05:52:03;;;;;;;6.20;3.60;;;;;;;12.54;81.33;98539.59;5022518;28;20034;-68
2021/09/04 05:54:28;;;;;;;5.30;3.60;;;;;;;12.86;80.46;98542.16;5022906;28;20073;-68
2021/09/04 05:56:54;;;;;;;7.78;3.55;;;;;;;13.15;79.71;98537.78;5023109;28;20384;-68
2021/09/04 05:59:19;;;;;;;6.45;3.95;;;;;;;13.48;78.65;98539.38;5022947;28;20018;-68
2021/09/04 06:01:45;;;;;;;6.30;3.30;;;;;;;13.77;77.19;98549.88;5023048;28;20029;-68
2021/09/04 06:04:10;;;;;;;7.75;3.63;;;;;;;14.05;76.60;98545.38;5022675;28;20101;-68
2021/09/04 06:06:35;;;;;;;6.85;3.35;;;;;;;14.31;75.66;98543.59;5022568;28;20321;-68
2021/09/04 06:09:02;;;;;;;5.80;3.30;;;;;;;14.47;74.82;98544.75;5005308;28;20025;-68
2021/09/04 06:11:29;;;;;;;7.70;3.42;;;;;;;14.56;74.74;98543.56;5022989;28;20093;-68
2021/09/04 06:13:56;;;;;;;8.55;4.15;;;;;;;14.97;74.23;98545.53;5025056;28;20261;-68
2021/09/04 06:16:21;;;;;;;8.00;3.60;;;;;;;15.45;72.80;98543.63;5026695;28;20026;-68
2021/09/04 06:18:46;;;;;;;9.25;4.32;;;;;;;15.79;71.54;98545.78;5026304;28;20041;-68
2021/09/04 06:21:12;;;;;;;6.72;3.80;;;;;;;16.01;70.75;98541.31;5026750;28;20026;-68
2021/09/04 06:23:37;;;;;;;5.93;3.65;;;;;;;16.47;70.38;98543.72;5026740;28;20297;-67
2021/09/04 06:26:03;;;;;;;8.27;3.70;;;;;;;16.69;68.66;98547.13;5026499;28;20026;-67
2021/09/04 06:28:28;;;;;;;6.43;3.80;;;;;;;16.91;68.19;98540.78;5026643;28;20340;-67
2021/09/04 06:30:53;;;;;;;7.03;3.97;;;;;;;16.70;69.48;98539.09;5026402;28;20029;-69
2021/09/04 06:33:19;;;;;;;9.95;3.97;;;;;;;17.14;67.75;98548.56;5026357;28;20321;-68
2021/09/04 06:35:44;;;;;;;13.27;4.20;;;;;;;17.81;66.85;98553.34;5026470;28;20217;-68
2021/09/04 06:38:09;;;;;;;5.80;3.70;;;;;;;17.91;65.89;98558.09;5026392;28;20030;-68
2021/09/04 06:40:35;;;;;;;6.93;3.83;;;;;;;18.30;65.43;98547.25;5026409;28;20028;-68
2021/09/04 06:43:00;;;;;;;11.82;4.82;;;;;;;18.30;65.68;98552.56;5026137;28;20036;-68
2021/09/04 06:45:26;;;;;;;9.05;4.50;;;;;;;18.58;65.92;98540.41;5025943;28;20022;-69
2021/09/04 06:47:52;;;;;;;6.47;4.10;;;;;;;19.28;64.38;98542.84;5026282;28;20317;-69
2021/09/04 06:50:18;;;;;;;8.25;4.45;;;;;;;19.64;64.05;98543.44;5026752;28;20236;-69
2021/09/04 06:52:44;;;;;;;6.97;4.35;;;;;;;19.81;63.12;98543.34;5025966;28;20030;-69
2021/09/04 06:55:10;;;;;;;12.43;5.30;;;;;;;20.11;63.65;98546.88;5026136;28;20033;-68
2021/09/04 06:57:35;;;;;;;8.13;4.45;;;;;;;20.23;63.93;98543.53;5025523;28;20064;-68
2021/09/04 07:00:01;;;;;;;6.53;4.15;;;;;;;20.78;62.84;98552.59;5025980;28;20025;-68
2021/09/04 07:02:26;;;;;;;8.52;4.50;;;;;;;21.11;61.57;98547.84;5025728;28;20026;-68
2021/09/04 07:04:51;;;;;;;9.23;5.05;;;;;;;20.71;62.91;98548.59;5025810;28;20065;-68
2021/09/04 07:07:17;;;;;;;7.72;5.03;;;;;;;21.05;62.09;98553.63;5025909;28;20072;-68
2021/09/04 07:09:42;;;;;;;6.90;4.28;;;;;;;21.77;61.59;98563.28;5025875;28;20205;-68
2021/09/04 07:12:08;;;;;;;11.73;5.75;;;;;;;21.83;61.27;98560.19;5025274;28;20083;-68
2021/09/04 07:14:33;;;;;;;11.07;4.97;;;;;;;22.22;60.77;98553.06;5025330;28;20380;-68
2021/09/04 07:16:58;;;;;;;9.35;5.40;;;;;;;21.94;62.67;98560.34;5025738;28;20097;-68
2021/09/04 07:19:24;;;;;;;13.40;6.00;;;;;;;22.79;59.24;98550.91;5025785;28;20026;-68
2021/09/04 07:21:49;;;;;;;12.07;5.97;;;;;;;23.10;58.47;98556.69;5025665;28;20194;-67
2021/09/04 07:24:14;;;;;;;8.70;5.68;;;;;;;23.29;57.56;98546.38;5025101;28;20033;-67
2021/09/04 07:26:40;;;;;;;9.95;6.30;;;;;;;23.54;57.80;98550.84;5025560;28;20033;-67
2021/09/04 07:29:05;;;;;;;10.07;6.20;;;;;;;23.27;59.30;98547.47;5025346;28;20313;-67
2021/09/04 07:31:31;;;;;;;11.48;6.55;;;;;;;23.82;56.74;98545.16;5007973;28;20071;-67
2021/09/04 07:33:56;;;;;;;9.80;6.10;;;;;;;24.23;56.69;98551.03;5025443;28;20213;-67
2021/09/04 07:36:22;;;;;;;10.85;6.85;;;;;;;24.04;56.91;98561.44;5024988;28;20025;-67
2021/09/04 07:38:47;;;;;;;11.93;7.25;;;;;;;22.89;58.42;98562.72;5025149;28;20518;-67
2021/09/04 07:41:12;;;;;;;9.27;6.13;;;;;;;24.42;56.22;98558.56;5025231;28;20033;-67
2021/09/04 07:43:38;;;;;;;11.85;6.32;;;;;;;25.22;56.26;98563.91;5025236;28;20030;-67
2021/09/04 07:46:03;;;;;;;12.60;7.40;;;;;;;24.23;54.92;98556.41;5025214;28;20025;-67
2021/09/04 07:48:29;;;;;;;11.35;6.35;;;;;;;24.88;56.13;98560.31;5025192;28;20077;-67
2021/09/04 07:50:54;;;;;;;11.00;6.25;;;;;;;25.27;53.29;98559.84;5024482;28;20024;-67
2021/09/04 07:53:21;;;;;;;9.57;7.00;;;;;;;25.71;54.17;98560.81;5024921;28;20069;-67
2021/09/04 07:55:47;;;;;;;8.57;6.40;;;;;;;26.02;54.06;98568.13;5025027;28;20037;-67
2021/09/04 07:58:12;;;;;;;9.82;6.20;;;;;;;26.53;52.12;98563.78;5024698;28;20213;-67
2021/09/04 08:00:38;;;;;;;11.43;5.78;;;;;;;26.52;52.71;98562.94;5024908;28;20190;-67
2021/09/04 08:03:03;;;;;;;18.08;7.40;;;;;;;26.47;50.84;98561.59;5024018;28;20069;-67
2021/09/04 08:05:29;;;;;;;12.07;6.40;;;;;;;26.75;50.00;98561.00;5024820;28;20028;-67
2021/09/04 08:07:54;;;;;;;10.30;6.22;;;;;;;27.18;50.64;98559.00;5025071;28;20368;-67
2021/09/04 08:10:19;;;;;;;11.02;6.07;;;;;;;27.33;48.45;98563.06;5025018;28;20013;-67
2021/09/04 08:12:45;;;;;;;10.70;6.38;;;;;;;26.65;49.40;98562.78;5006962;28;20340;-67
2021/09/04 08:15:10;;;;;;;10.40;5.93;;;;;;;27.07;49.71;98550.94;5024639;28;20018;-67
2021/09/04 08:17:36;;;;;;;10.98;5.95;;;;;;;27.49;49.47;98559.88;5024167;28;20045;-67
2021/09/04 08:20:02;;;;;;;10.00;6.10;;;;;;;27.89;46.06;98561.59;5024466;28;20029;-67
2021/09/04 08:22:28;;;;;;;10.07;6.90;;;;;;;27.59;48.15;98556.22;5024374;28;20025;-67
2021/09/04 08:24:54;;;;;;;12.07;7.40;;;;;;;27.17;46.39;98557.25;5024740;28;20245;-67
2021/09/04 08:27:19;;;;;;;12.23;7.05;;;;;;;27.38;46.53;98558.13;5024443;28;20032;-67
2021/09/04 08:29:45;;;;;;;10.48;7.03;;;;;;;27.07;46.95;98554.53;5023811;28;20210;-67
2021/09/04 08:32:10;;;;;;;10.73;6.63;;;;;;;27.62;47.50;98558.63;5024340;28;20072;-67
2021/09/04 08:34:35;;;;;;;10.32;6.50;;;;;;;27.76;46.49;98558.25;5024269;28;20030;-67
2021/09/04 08:37:02;;;;;;;14.40;7.70;;;;;;;27.17;45.84;98557.25;5023685;28;20028;-67
2021/09/04 08:39:27;;;;;;;10.32;6.30;;;;;;;27.91;47.40;98553.34;5024129;28;20029;-67
2021/09/04 08:41:53;;;;;;;12.23;7.53;;;;;;;28.50;43.95;98563.09;5023613;28;20022;-67
2021/09/04 08:44:20;;;;;;;11.60;6.82;;;;;;;27.93;45.94;98573.00;5023981;28;20381;-67
2021/09/04 08:46:45;;;;;;;9.00;6.70;;;;;;;28.64;44.42;98576.25;5024090;28;20029;-67
2021/09/04 08:49:11;;;;;;;9.95;6.20;;;;;;;28.56;45.28;98573.38;5024329;28;20028;-67
2021/09/04 08:51:36;;;;;;;11.07;6.55;;;;;;;27.80;46.29;98570.50;5023806;28;20085;-67
2021/09/04 08:54:02;;;;;;;9.80;7.22;;;;;;;28.55;46.28;98566.25;5023931;28;20026;-68
2021/09/04 08:56:28;;;;;;;17.52;7.28;;;;;;;27.71;44.22;98570.50;5023475;28;20249;-68
2021/09/04 08:58:53;;;;;;;13.05;6.82;;;;;;;28.57;44.94;98575.06;5006322;28;20022;-68
2021/09/04 09:01:27;;;;;;;14.02;6.65;;;;;;;28.48;45.55;98569.69;5023651;28;20017;-66
2021/09/04 09:03:54;;;;;;;10.57;6.65;;;;;;;28.72;46.63;98572.78;5023657;28;20290;-66
2021/09/04 09:06:34;;;;;;;10.73;6.55;;;;;;;28.46;45.07;98582.50;5023560;28;20022;-66
2021/09/04 09:09:14;;;;;;;12.93;7.25;;;;;;;28.50;45.24;98573.94;5023193;28;20386;-66
2021/09/04 09:11:39;;;;;;;13.32;6.65;;;;;;;28.63;46.59;98569.09;5023729;28;20259;-66
2021/09/04 09:14:04;;;;;;;10.20;6.65;;;;;;;28.30;43.29;98566.78;5023660;28;20056;-66
2021/09/04 09:16:30;;;;;;;11.20;6.40;;;;;;;29.59;43.62;98569.75;5023401;28;20033;-66
2021/09/04 09:19:02;;;;;;;8.95;5.72;;;;;;;29.43;44.22;98574.97;5023479;28;20026;-66
2021/09/04 09:21:32;;;;;;;13.43;6.85;;;;;;;29.21;45.58;98570.72;5023302;28;20351;-66
2021/09/04 09:24:11;;;;;;;9.23;6.68;;;;;;;28.39;45.64;98574.06;5023568;28;20025;-66
2021/09/04 09:27:00;;;;;;;10.30;6.50;;;;;;;28.81;44.09;98572.78;5005936;28;20053;-66
2021/09/04 09:29:34;;;;;;;8.40;6.03;;;;;;;28.63;46.11;98569.09;5003801;28;20022;-66
2021/09/04 09:32:04;;;;;;;10.77;6.32;;;;;;;29.13;46.34;98567.91;5004045;28;20026;-66
2021/09/04 09:34:30;;;;;;;13.90;6.28;;;;;;;28.95;43.65;98569.63;5003536;28;20018;-66
2021/09/04 09:37:01;;;;;;;12.02;6.50;;;;;;;29.62;42.14;98557.78;5003700;28;20026;-66
2021/09/04 09:39:28;;;;;;;9.35;6.10;;;;;;;29.60;44.13;98554.31;5003600;28;20053;-67
2021/09/04 09:41:55;;;;;;;11.75;5.90;;;;;;;29.70;41.24;98555.19;5014848;28;20096;-67
2021/09/04 09:44:26;;;;;;;12.27;6.47;;;;;;;28.93;41.72;98555.38;5023252;28;20025;-67
2021/09/04 09:46:58;;;;;;;11.38;6.32;;;;;;;28.73;43.20;98556.38;5022854;28;20026;-67
2021/09/04 09:49:30;;;;;;;;;;;;;;;28.69;42.79;98544.13;5022901;28;20032;-67
2021/09/04 09:52:08;;;;;;;9.48;6.00;;;;;;;29.65;43.24;98554.75;5024149;28;19912;-66
2021/09/04 09:54:35;;;;;;;9.20;5.57;;;;;;;29.71;42.22;98556.88;5024106;28;20025;-67
2021/09/04 09:57:03;;;;;;;10.05;5.60;;;;;;;29.64;42.41;98555.78;5023982;28;20412;-67
2021/09/04 09:59:29;;;;;;;11.10;6.13;;;;;;;29.85;41.52;98545.50;5023678;28;20022;-66
2021/09/04 10:02:00;;;;;;;9.80;5.53;;;;;;;29.48;40.78;98550.94;5023979;28;20021;-66
2021/09/04 10:04:28;;;;;;;9.85;5.95;;;;;;;29.20;39.48;98547.34;5021617;28;20065;-66
2021/09/04 10:06:55;;;;;;;9.98;5.82;;;;;;;28.64;40.75;98538.31;5023056;28;20040;-66
2021/09/04 10:09:24;;;;;;;9.25;5.20;;;;;;;29.48;39.89;98550.94;5022575;28;20018;-66
2021/09/04 10:11:51;;;;;;;9.18;5.75;;;;;;;28.75;40.72;98543.56;5005447;28;20030;-66
2021/09/04 10:14:17;;;;;;;7.20;5.65;;;;;;;28.84;40.39;98542.69;5022951;28;20021;-66
2021/09/04 10:16:45;;;;;;;9.52;5.60;;;;;;;28.05;41.25;98542.97;5022506;28;20022;-66
2021/09/04 10:19:15;;;;;;;9.10;5.78;;;;;;;27.55;42.48;98541.22;5022248;28;20037;-66
2021/09/04 10:21:40;;;;;;;8.23;5.57;;;;;;;27.91;43.71;98537.97;5022779;28;20017;-66
2021/09/04 10:24:07;;;;;;;10.52;5.97;;;;;;;27.81;43.84;98537.03;5022861;28;20025;-66
2021/09/04 10:26:35;;;;;;;7.50;5.10;;;;;;;27.85;42.02;98533.13;5022850;28;20025;-66
2021/09/04 10:29:09;;;;;;;7.25;5.13;;;;;;;27.71;41.96;98536.16;5021943;28;20020;-66
2021/09/04 10:31:52;;;;;;;10.93;5.40;;;;;;;28.13;41.47;98542.25;5022648;28;20032;-66
2021/09/04 10:34:38;;;;;;;9.95;5.30;;;;;;;27.74;42.09;98535.88;5022790;28;20037;-66
2021/09/04 10:37:15;;;;;;;7.35;4.82;;;;;;;28.22;42.84;98533.31;5023562;28;20056;-66
2021/09/04 10:40:07;;;;;;;7.82;4.65;;;;;;;28.76;41.30;98520.88;5022552;28;20030;-66
2021/09/04 10:42:34;;;;;;;9.30;5.55;;;;;;;27.94;41.09;98526.88;5022239;28;20029;-66
2021/09/04 10:45:06;;;;;;;7.32;5.00;;;;;;;28.33;40.82;98525.91;5022405;28;20029;-66
2021/09/04 10:48:17;;;;;;;8.27;5.07;;;;;;;27.88;42.34;98522.00;5021688;28;20056;-66
2021/09/04 10:51:03;;;;;;;11.07;5.40;;;;;;;27.17;41.69;98519.44;4986752;28;20355;-68
2021/09/04 10:53:44;;;;;;;8.63;4.90;;;;;;;27.85;41.92;98527.72;5022550;28;20225;-68
2021/09/04 10:56:20;;;;;;;;;;;;;;;27.83;42.98;98520.66;5004639;28;20212;-68
2021/09/04 10:58:47;;;;;;;8.85;5.03;;;;;;;27.65;42.54;98519.66;5022435;28;19917;-68
2021/09/04 11:01:26;;;;;;;7.15;4.80;;;;;;;27.64;40.12;98513.38;5026332;28;20211;-68
2021/09/04 11:03:53;;;;;;;8.68;4.80;;;;;;;27.60;40.38;98521.91;5025829;28;20104;-68
2021/09/04 11:06:20;;;;;;;9.25;4.90;;;;;;;27.64;39.98;98513.38;5025797;28;20045;-68
2021/09/04 11:08:47;;;;;;;9.20;4.72;;;;;;;27.61;40.39;98513.66;5025342;28;20018;-68
2021/09/04 11:11:12;;;;;;;8.88;4.70;;;;;;;28.01;40.84;98528.00;5025921;28;20048;-67
2021/09/04 11:13:54;;;;;;;8.30;4.50;;;;;;;27.65;40.74;98517.78;5025861;28;20026;-67
2021/09/04 11:16:42;;;;;;;8.15;4.65;;;;;;;27.80;40.54;98521.81;5026075;28;20321;-65
2021/09/04 11:19:13;;;;;;;8.05;4.68;;;;;;;28.07;40.78;98511.22;5025969;28;20021;-65
2021/09/04 11:21:59;;;;;;;9.38;4.55;;;;;;;28.23;39.51;98516.06;5025297;28;20138;-65
2021/09/04 11:24:29;;;;;;;7.78;4.78;;;;;;;28.37;41.98;98502.94;5025688;28;20021;-64
2021/09/04 11:26:59;;;;;;;11.10;4.63;;;;;;;27.96;38.38;98511.31;5025275;28;20340;-64
2021/09/04 11:29:25;;;;;;;7.53;4.80;;;;;;;28.01;39.00;98506.38;5025594;28;20017;-64
2021/09/04 11:31:59;;;;;;;7.25;4.70;;;;;;;27.32;40.56;98510.00;5025447;28;20017;-65